MPTO/PTY METAR and TAF weather

Enter ICAO airport designator
Station Type Date Time Source
MPTO METAR 2020/04/05 19:00 UTC NOAA

MPTO 051900Z 35012KT 9999 SCT018 SCT090 34/21 Q1010 NOSIG


Station Type Date Time Source
MPTO Decoded METAR 2020/04/05 19:00 UTC NOAA

Tocumen, Panama (MPTO) 09-03N 079-22W
Apr 05, 2020 - 03:00 PM EDT / 2020.04.05 1900 UTC
Wind: from the N (350 degrees) at 14 MPH (12 KT):0
Visibility: greater than 7 mile(s):0
Sky conditions: partly cloudy
Temperature: 93 F (34 C)
Heat index: 98.4 F (36.9 C):1
Dew Point: 69 F (21 C)
Relative Humidity: 46%
Pressure (altimeter): 29.83 in. Hg (1010 hPa)
ob: MPTO 051900Z 35012KT 9999 SCT018 SCT090 34/21 Q1010 NOSIG
cycle: 19

Station Type Date Time Source
MPTO TAF 2020/04/05 18:57 UTC NOAA

TAF TAF MPTO 051730Z 0518/0624 02008KT 9999 SCT018
BECMG 0600/0604 29006KT

Example: see airport list